Airfield :
LOGIN :

Register | Disclaimer

   EN    FR    IT 

 










Legend :    VFR   Marginal VFR   IFR   Intensive IFR   Very Intensive IFR
Visi :
Ceiling :
>= 8 km
>= 3000ft
5 to 8 km
1000 to 3000 ft
1500m to 5 km
500 to 1000 ft
800 to 1500m
200 to 500 ft
< 800m
< 200 ft
Symbols :   Thunderstorms  Fog  Heavy snow  Heavy precipitations  Wind > 20 kt
SIGMETs :     Misc.  Thunderstorms  Icing  Turbulence  Mountain Waves  Volcanic Ashes






- Airport Elevation : 1411 ft
- IATA code : SZG


LOWS - Salzburg

CURRENT METAR :
  • 281450Z 13006KT 8000 TS FEW015 SCT030 FEW040CB BKN050 13/09 Q1026 TEMPO 35020G30KT 4000 TSRA

EXPIRED METARs :
  • 281420Z 16006KT 100V220 9999 FEW015 SCT030 FEW050CB BKN100 14/10 Q1026 TEMPO 34020G30KT TSRA
  • 281350Z 19005KT 170V230 9999 FEW009 FEW050CB SCT100 12/10 Q1027 NOSIG
  • 281320Z 23005KT 9999 FEW007 SCT020 BKN060 12/11 Q1028 NOSIG
  • 281250Z VRB01KT 9999 FEW005 SCT020 BKN035 12/10 Q1028 NOSIG
  • 281220Z VRB01KT 9999 FEW005 SCT020 BKN035 11/10 Q1028 NOSIG

TAF AMD TAF LOWS
Valid from the 28 at 13:00 until the 29 at 12:00 UTC


281331Z 2813/2912 30007KT 9999 FEW050 BKN070 TX14/2912Z TN07/2904Z
TEMPO 2813/2820 SHRA FEW040TCU BKN050
PROB40
TEMPO 2814/2818 35015G25KT 4000 TSRA FEW040CB BKN050
TEMPO 2820/2912 -RA BKN020



MET'MAP, your aeronautical weather chart ! - Copyright ORBIFLY December 2007 - Disclaimer

ORBIFLY MET'MAP TEAM :

Programming & Development : Alexandra Zaïnal
Concept & original design : Baudouin d'Aumeries
Assistance for programming : Marc-Olivier Méhu
Technical & hardware support : Manuel Goepfert

Contact : metmap@orbifly.com




SOURCES & CREDITS :

   NOAA